Terminal Aerodrome Forecast
Issued by NWS

Home | Current Version | Previous Version | Text Only | Print | Product List | Glossary On
Versions: 1 2 3 4 5 6 7 8 9 10 11 12 13 14 15 16 17 18 19 20 21 22 23 24 25 26 27 28 29 30 31 32
000
FTUS45 KLKN 041732
TAFEKO
TAF
KEKO 041732Z 0418/0518 06004KT P6SM SCT200
     FM042100 22008KT P6SM VCTS SCT100CB
     FM042300 22010G25KT P6SM -TSRA BKN100CB OVC150
     FM050600 23010KT P6SM -SHRA BKN050 OVC080
     FM051000 22006KT P6SM SCT050 BKN080=

USA.gov is the U.S. government's official web portal to all federal, state and local government web resources and services.